Accueil
METAR-TAF:

METAR-TAF

Aéroports :

Aviano Air Base

Aviano, Italie

latitude: 46-02N, longitude: 012-36E, altitude: 128 m

Observation

Le bulletin a été fait il y a 39 minutes, à 11:55 UTC
Vent 5 kt de est/nord-est
Température 6°C
Humidité 81%
Pression 1014 hPa
Visibilité 10 km ou plus
Quelques nuages à une hauteur de 1000 ft
Nuages épars à une hauteur de 3500 ft

METAR: LIPA 181155Z 06005KT 9999 FEW010 SCT035 06/03 Q1014 RMK BKN VIS MIN 9999 WIND THR05 04004KT WIND THR23 05005KT A2995 BLU

Heure: 13:34 (12:34 UTC)

Prévision

Le bulletin a été fait il y a 1 heure et 34 minutes, à 11:00 UTC
Prévision valable du 18 à 12 UTC au 18 à 21 UTC
Vent 8 kt de est/nord-est
Visibilité 10 km ou plus
Nuages épars à une hauteur de 2000 ft
Nuages fragmentés à une hauteur de 4000 ft

TAF: LIPA 181100Z 1812/1821 07008KT 9999 SCT020 BKN040

Observations et prévisions météorologiques de plus de 4000 aéroports (messages METAR et TAF).

Les stations disponibles sont représentées par des disques jaunes et rouges sur la carte.

Passer la souris dessus pour voir le nom de la station.

Cliquer dessus pour voir les observations et prévisions météorologiques.

Pour changer de carte: cliquez sur les boutons verts avec une croix noire pour zoomer, sur le bouton vert avec un tiret pour effectuer un zoom arrière, ou sur les flèches vertes pour les cartes adjacentes.


METAR-TAF: